createdAt,value
2018-05-04T00:01:12.220Z,15.59
2018-05-04T00:03:38.185Z,15.26
2018-05-04T00:06:04.148Z,15.19
2018-05-04T00:08:30.112Z,15.35
2018-05-04T00:10:56.069Z,15.49
2018-05-04T00:13:22.055Z,15.29
2018-05-04T00:15:48.040Z,15.35
2018-05-04T00:18:14.029Z,14.93
2018-05-04T00:20:40.019Z,15.11
2018-05-04T00:23:05.959Z,15.25
2018-05-04T00:25:31.927Z,14.98
2018-05-04T00:27:57.885Z,14.91
2018-05-04T00:30:23.850Z,15.12
2018-05-04T00:32:49.807Z,14.88
2018-05-04T00:35:15.775Z,14.97
2018-05-04T00:37:41.729Z,15.09
2018-05-04T00:40:07.705Z,15.19
2018-05-04T00:42:33.673Z,15.18
2018-05-04T00:44:59.663Z,15.01
2018-05-04T00:47:25.597Z,14.66
2018-05-04T00:49:51.585Z,15.08
2018-05-04T00:52:17.543Z,15.21
2018-05-04T00:54:43.508Z,15.07
2018-05-04T00:57:09.540Z,15.29
2018-05-04T00:59:35.512Z,15.12
2018-05-04T01:02:01.455Z,14.72
2018-05-04T01:04:27.397Z,14.95
2018-05-04T01:06:53.370Z,14.63
2018-05-04T01:09:19.342Z,14.95
2018-05-04T01:11:45.289Z,15.10
2018-05-04T01:14:11.263Z,15.10
2018-05-04T01:16:37.205Z,15.03
2018-05-04T01:19:03.140Z,15.13
2018-05-04T01:21:29.087Z,14.86
2018-05-04T01:23:55.057Z,15.02
2018-05-04T01:26:21.040Z,15.27
2018-05-04T01:28:47.036Z,14.79
2018-05-04T01:31:12.990Z,14.97
2018-05-04T01:33:38.952Z,15.03
2018-05-04T01:36:04.907Z,14.95
2018-05-04T01:38:30.868Z,14.78
2018-05-04T01:40:56.828Z,15.13
2018-05-04T01:43:22.893Z,15.09
2018-05-04T01:45:48.860Z,14.72
2018-05-04T01:48:14.817Z,14.97
2018-05-04T01:50:40.793Z,14.78
2018-05-04T01:53:06.756Z,14.85
2018-05-04T01:55:32.735Z,15.13
2018-05-04T01:57:58.692Z,14.98
2018-05-04T02:00:24.658Z,14.80
2018-05-04T02:02:50.590Z,15.05
2018-05-04T02:05:16.559Z,15.08
2018-05-04T02:07:42.622Z,14.56
2018-05-04T02:10:08.547Z,14.57
2018-05-04T02:12:34.492Z,14.64
2018-05-04T02:15:00.480Z,14.60
2018-05-04T02:17:26.437Z,14.71
2018-05-04T02:19:52.418Z,14.85
2018-05-04T02:22:18.415Z,14.95
2018-05-04T02:24:44.363Z,15.09
2018-05-04T02:27:10.317Z,14.57
2018-05-04T02:29:36.272Z,14.37
2018-05-04T02:32:02.224Z,14.35
2018-05-04T02:34:28.165Z,14.66
2018-05-04T02:36:54.107Z,14.48
2018-05-04T02:39:20.071Z,14.35
2018-05-04T02:41:46.028Z,14.42
2018-05-04T02:44:12.018Z,14.32
2018-05-04T02:46:37.993Z,14.65
2018-05-04T02:49:03.979Z,14.44
2018-05-04T02:51:29.953Z,14.69
2018-05-04T02:53:55.894Z,14.76
2018-05-04T02:56:21.852Z,14.83
2018-05-04T02:58:47.804Z,14.77
2018-05-04T03:01:13.781Z,14.69
2018-05-04T03:03:39.756Z,14.54
2018-05-04T03:06:05.727Z,14.61
2018-05-04T03:08:31.753Z,14.66
2018-05-04T03:10:57.717Z,14.50
2018-05-04T03:13:23.650Z,14.71
2018-05-04T03:15:49.616Z,14.62
2018-05-04T03:18:15.658Z,14.70
2018-05-04T03:20:41.651Z,14.69
2018-05-04T03:23:07.600Z,14.80
2018-05-04T03:25:33.558Z,14.72
2018-05-04T03:27:59.518Z,14.37
2018-05-04T03:30:25.489Z,14.46
2018-05-04T03:32:51.467Z,14.44
2018-05-04T03:35:17.431Z,14.59
2018-05-04T03:37:43.426Z,14.53
2018-05-04T03:40:09.404Z,14.75
2018-05-04T03:42:35.412Z,14.86
2018-05-04T03:45:01.390Z,14.76
2018-05-04T03:47:27.438Z,14.76
2018-05-04T03:49:53.393Z,14.69
2018-05-04T03:52:19.356Z,14.66
2018-05-04T03:54:45.332Z,14.52
2018-05-04T03:57:11.402Z,14.55
2018-05-04T03:59:37.465Z,14.54
2018-05-04T04:02:04.186Z,14.58
2018-05-04T04:04:30.256Z,14.59
2018-05-04T04:06:56.225Z,14.68
2018-05-04T04:09:22.170Z,14.83
2018-05-04T04:11:48.158Z,14.83
2018-05-04T04:14:14.152Z,14.74
2018-05-04T04:16:40.138Z,14.84
2018-05-04T04:19:06.091Z,14.74
2018-05-04T04:21:32.047Z,14.65
2018-05-04T04:23:58.080Z,14.68
2018-05-04T04:26:24.113Z,14.82
2018-05-04T04:28:50.115Z,14.74
2018-05-04T04:31:16.078Z,14.85
2018-05-04T04:33:42.061Z,14.81
2018-05-04T04:36:08.029Z,14.87
2018-05-04T04:38:34.043Z,14.56
2018-05-04T04:41:00.037Z,14.79
2018-05-04T04:43:25.984Z,14.84
2018-05-04T04:45:52.016Z,14.65
2018-05-04T04:48:18.026Z,14.55
2018-05-04T04:50:44.069Z,14.79
2018-05-04T04:53:10.037Z,14.77
2018-05-04T04:55:35.999Z,14.60
2018-05-04T04:58:01.959Z,14.44
2018-05-04T05:00:27.944Z,14.72
2018-05-04T05:02:53.902Z,14.52
2018-05-04T05:05:19.863Z,14.58
2018-05-04T05:07:45.843Z,14.60
2018-05-04T05:10:11.803Z,14.59
2018-05-04T05:12:37.768Z,14.82
2018-05-04T05:15:03.782Z,14.75
2018-05-04T05:17:29.767Z,14.77
2018-05-04T05:19:55.719Z,14.81
2018-05-04T05:22:21.733Z,14.65
2018-05-04T05:24:47.701Z,14.79
2018-05-04T05:27:13.921Z,14.77
2018-05-04T05:29:39.875Z,14.67
2018-05-04T05:32:05.819Z,14.79
2018-05-04T05:34:31.807Z,14.86
2018-05-04T05:36:57.746Z,14.67
2018-05-04T05:39:23.721Z,14.73
2018-05-04T05:41:49.690Z,14.76
2018-05-04T05:44:15.672Z,14.93
2018-05-04T05:46:41.610Z,14.92
2018-05-04T05:49:07.583Z,14.36
2018-05-04T05:51:33.548Z,14.68
2018-05-04T05:53:59.607Z,14.95
2018-05-04T05:56:25.558Z,14.86
2018-05-04T05:58:51.496Z,14.86
2018-05-04T06:01:18.458Z,14.90
2018-05-04T06:03:44.394Z,14.06
2018-05-04T06:06:10.393Z,14.56
2018-05-04T06:08:36.353Z,14.80
2018-05-04T06:11:02.327Z,14.90
2018-05-04T06:13:28.306Z,14.45
2018-05-04T06:15:54.280Z,14.72
2018-05-04T06:18:20.274Z,14.86
2018-05-04T06:20:46.225Z,14.98
2018-05-04T06:23:12.252Z,14.87
2018-05-04T06:25:38.209Z,14.94
2018-05-04T06:28:04.155Z,14.95
2018-05-04T06:30:30.116Z,14.57
2018-05-04T06:32:56.150Z,14.68
2018-05-04T06:35:22.103Z,14.85
2018-05-04T06:37:48.089Z,15.29
2018-05-04T06:40:14.039Z,15.75
2018-05-04T06:42:39.994Z,16.45
2018-05-04T06:45:05.994Z,16.59
2018-05-04T06:47:31.982Z,16.45
2018-05-04T06:49:57.961Z,17.23
2018-05-04T06:52:23.998Z,17.36
2018-05-04T06:54:49.970Z,17.57
2018-05-04T06:57:15.979Z,17.10
2018-05-04T06:59:41.938Z,17.39
2018-05-04T07:02:07.893Z,17.81
2018-05-04T07:04:33.863Z,17.68
2018-05-04T07:06:59.875Z,17.71
2018-05-04T07:09:25.854Z,17.82
2018-05-04T07:11:51.844Z,17.97
2018-05-04T07:14:17.802Z,18.04
2018-05-04T07:16:43.770Z,18.18
2018-05-04T07:19:09.784Z,18.35
2018-05-04T07:21:35.735Z,18.22
2018-05-04T07:24:01.673Z,18.27
2018-05-04T07:26:27.638Z,17.98
2018-05-04T07:28:53.640Z,17.42
2018-05-04T07:31:19.942Z,18.12
2018-05-04T07:33:45.943Z,18.21
2018-05-04T07:36:11.937Z,18.06
2018-05-04T07:38:37.958Z,17.91
2018-05-04T07:41:03.889Z,18.29
2018-05-04T07:43:29.869Z,18.36
2018-05-04T07:45:55.828Z,18.18
2018-05-04T07:48:21.813Z,18.26
2018-05-04T07:50:47.773Z,18.08
2018-05-04T07:53:13.729Z,18.27
2018-05-04T07:55:39.677Z,18.81
2018-05-04T07:58:05.658Z,18.70
2018-05-04T08:00:31.602Z,18.76
2018-05-04T08:02:57.651Z,18.72
2018-05-04T08:05:23.664Z,18.60
2018-05-04T08:07:49.633Z,18.24
2018-05-04T08:10:15.606Z,18.04
2018-05-04T08:12:41.559Z,18.72
2018-05-04T08:15:07.554Z,18.75
2018-05-04T08:17:33.533Z,18.23
2018-05-04T08:19:59.647Z,18.48
2018-05-04T08:22:25.534Z,18.67
2018-05-04T08:24:51.562Z,18.74
2018-05-04T08:27:17.619Z,18.59
2018-05-04T08:29:43.534Z,18.57
2018-05-04T08:32:09.491Z,18.03
2018-05-04T08:34:35.465Z,18.08
2018-05-04T08:37:01.411Z,18.25
2018-05-04T08:39:27.415Z,18.23
2018-05-04T08:41:53.378Z,17.89
2018-05-04T08:44:19.353Z,17.84
2018-05-04T08:46:45.347Z,17.57
2018-05-04T08:49:11.396Z,17.73
2018-05-04T08:51:37.355Z,17.79
2018-05-04T08:54:03.310Z,17.84
2018-05-04T08:56:29.274Z,17.82
2018-05-04T08:58:55.257Z,18.09
2018-05-04T09:01:21.211Z,18.11
2018-05-04T09:03:47.205Z,17.61
2018-05-04T09:06:13.183Z,17.43
2018-05-04T09:08:39.148Z,17.83
2018-05-04T09:11:05.130Z,17.63
2018-05-04T09:13:31.093Z,17.62
2018-05-04T09:15:57.066Z,17.49
2018-05-04T09:18:23.037Z,17.74
2018-05-04T09:20:48.995Z,17.23
2018-05-04T09:23:15.034Z,17.54
2018-05-04T09:25:41.019Z,17.86
2018-05-04T09:28:07.023Z,17.93
2018-05-04T09:30:33.047Z,17.63
2018-05-04T09:32:59.027Z,17.43
2018-05-04T09:35:24.981Z,16.87
2018-05-04T09:37:50.918Z,17.51
2018-05-04T09:40:16.892Z,17.71
2018-05-04T09:42:42.860Z,17.66
2018-05-04T09:45:08.845Z,17.79
2018-05-04T09:47:34.795Z,17.74
2018-05-04T09:50:00.777Z,17.78
2018-05-04T09:52:26.748Z,17.48
2018-05-04T09:54:52.728Z,17.67
2018-05-04T09:57:18.665Z,17.71
2018-05-04T09:59:44.608Z,17.64
2018-05-04T10:02:10.608Z,17.02
2018-05-04T10:04:36.571Z,17.13
2018-05-04T10:07:02.537Z,16.79
2018-05-04T10:09:28.497Z,17.05
2018-05-04T10:11:54.443Z,16.86
2018-05-04T10:14:20.443Z,16.96
2018-05-04T10:16:46.390Z,17.46
2018-05-04T10:19:12.359Z,17.34
2018-05-04T10:21:38.326Z,17.17
2018-05-04T10:24:04.313Z,17.08
2018-05-04T10:26:30.349Z,17.15
2018-05-04T10:28:56.299Z,17.17
2018-05-04T10:31:22.311Z,17.35
2018-05-04T10:33:48.236Z,17.52
2018-05-04T10:36:14.286Z,17.15
2018-05-04T10:38:40.272Z,17.47
2018-05-04T10:41:06.176Z,17.13
2018-05-04T10:43:32.118Z,17.23
2018-05-04T10:45:58.086Z,17.47
2018-05-04T10:48:24.057Z,17.62
2018-05-04T10:50:50.055Z,17.53
2018-05-04T10:53:16.072Z,17.31
2018-05-04T10:55:42.031Z,17.39
2018-05-04T10:58:08.002Z,17.00
2018-05-04T11:00:33.967Z,16.96
2018-05-04T11:02:59.913Z,17.24
2018-05-04T11:05:25.931Z,17.19
2018-05-04T11:07:51.880Z,17.02
2018-05-04T11:10:17.852Z,17.06
2018-05-04T11:12:43.804Z,17.12
2018-05-04T11:15:09.765Z,17.40
2018-05-04T11:17:35.731Z,17.33
2018-05-04T11:20:01.709Z,17.50
2018-05-04T11:22:27.680Z,17.49
2018-05-04T11:24:53.707Z,17.46
2018-05-04T11:27:19.670Z,17.64
2018-05-04T11:29:45.665Z,17.56
2018-05-04T11:32:11.650Z,17.65
2018-05-04T11:34:37.649Z,17.79
2018-05-04T11:37:03.773Z,17.54
2018-05-04T11:39:29.746Z,17.40
2018-05-04T11:41:55.722Z,17.28
2018-05-04T11:44:21.717Z,17.45
2018-05-04T11:46:47.695Z,17.66
2018-05-04T11:49:13.648Z,17.71
2018-05-04T11:51:39.611Z,17.76
2018-05-04T11:54:05.570Z,17.80
2018-05-04T11:56:31.787Z,17.63
2018-05-04T11:58:57.739Z,17.32
2018-05-04T12:01:23.705Z,17.35
2018-05-04T12:03:49.670Z,17.53
2018-05-04T12:06:15.647Z,17.60
2018-05-04T12:08:41.637Z,17.66
2018-05-04T12:11:07.629Z,17.71
2018-05-04T12:13:33.590Z,17.72
2018-05-04T12:15:59.535Z,17.74
2018-05-04T12:18:25.492Z,17.74
2018-05-04T12:20:51.454Z,17.45
2018-05-04T12:23:17.498Z,17.64
2018-05-04T12:25:43.813Z,17.68
2018-05-04T12:28:09.787Z,17.79
2018-05-04T12:30:35.807Z,17.70
2018-05-04T12:33:01.771Z,17.63
2018-05-04T12:35:27.816Z,17.69
2018-05-04T12:37:53.806Z,17.84
2018-05-04T12:40:19.771Z,17.86
2018-05-04T12:42:45.729Z,17.90
2018-05-04T12:45:11.691Z,18.05
2018-05-04T12:47:37.680Z,18.11
2018-05-04T12:50:03.700Z,18.06
2018-05-04T12:52:29.699Z,18.13
2018-05-04T12:54:55.646Z,17.90
2018-05-04T12:57:21.606Z,17.80
2018-05-04T12:59:47.666Z,17.84
2018-05-04T13:02:13.648Z,18.04
2018-05-04T13:04:39.648Z,17.99
2018-05-04T13:07:05.659Z,18.07
2018-05-04T13:09:31.650Z,18.04
2018-05-04T13:11:57.635Z,18.08
2018-05-04T13:14:23.661Z,18.01
2018-05-04T13:16:49.693Z,17.76
2018-05-04T13:19:15.725Z,17.85
2018-05-04T13:21:41.744Z,17.89
2018-05-04T13:24:07.726Z,17.89
2018-05-04T13:26:33.669Z,17.90
2018-05-04T13:28:59.608Z,18.00
2018-05-04T13:31:25.965Z,17.90
2018-05-04T13:33:51.949Z,18.05
2018-05-04T13:36:17.919Z,18.10
2018-05-04T13:38:43.934Z,18.14
2018-05-04T13:41:09.969Z,18.08
2018-05-04T13:43:36.051Z,17.97
2018-05-04T13:46:02.075Z,18.01
2018-05-04T13:48:28.026Z,18.16
2018-05-04T13:50:54.134Z,18.17
2018-05-04T13:53:20.074Z,18.12
2018-05-04T13:55:46.068Z,18.05
2018-05-04T13:58:12.120Z,18.00
2018-05-04T14:00:38.102Z,17.98
2018-05-04T14:03:04.077Z,18.12
2018-05-04T14:05:30.073Z,18.27
2018-05-04T14:07:56.042Z,18.26
2018-05-04T14:10:22.071Z,18.14
2018-05-04T14:12:48.142Z,17.96
2018-05-04T14:15:14.136Z,18.13
2018-05-04T14:17:40.137Z,18.22
2018-05-04T14:20:06.569Z,18.26
2018-05-04T14:22:32.582Z,18.26
2018-05-04T14:24:58.584Z,18.25
2018-05-04T14:27:24.545Z,18.29
2018-05-04T14:29:50.575Z,18.22
2018-05-04T14:32:16.761Z,18.07
2018-05-04T14:34:42.710Z,18.20
2018-05-04T14:37:08.660Z,18.24
2018-05-04T14:39:34.685Z,18.27
2018-05-04T14:42:00.645Z,18.27
2018-05-04T14:44:26.639Z,18.30
2018-05-04T14:46:52.593Z,18.25
2018-05-04T14:49:18.541Z,18.27
2018-05-04T14:51:44.523Z,18.21
2018-05-04T14:54:10.527Z,18.15
2018-05-04T14:56:36.523Z,18.23
2018-05-04T14:59:02.469Z,18.32
2018-05-04T15:01:28.427Z,18.31
2018-05-04T15:03:54.492Z,18.16
2018-05-04T15:06:20.514Z,18.19
2018-05-04T15:08:46.495Z,18.17
2018-05-04T15:11:12.495Z,18.12
2018-05-04T15:13:38.487Z,18.17
2018-05-04T15:16:04.518Z,18.14
2018-05-04T15:18:30.486Z,18.16
2018-05-04T15:20:56.444Z,18.22
2018-05-04T15:23:22.382Z,18.30
2018-05-04T15:25:48.357Z,18.31
2018-05-04T15:28:14.349Z,18.30
2018-05-04T15:30:40.739Z,18.28
2018-05-04T15:33:06.682Z,18.40
2018-05-04T15:35:32.701Z,18.31
2018-05-04T15:37:58.661Z,18.22
2018-05-04T15:40:24.720Z,18.28
2018-05-04T15:42:50.661Z,18.16
2018-05-04T15:45:16.647Z,18.06
2018-05-04T15:47:42.616Z,18.09
2018-05-04T15:50:08.579Z,18.10
2018-05-04T15:52:34.610Z,18.15
2018-05-04T15:55:00.673Z,18.17
2018-05-04T15:57:26.563Z,18.09
2018-05-04T15:59:52.540Z,18.12
2018-05-04T16:02:18.529Z,18.24
2018-05-04T16:04:44.516Z,18.28
2018-05-04T16:07:10.482Z,18.15
2018-05-04T16:09:36.494Z,18.15
2018-05-04T16:12:02.443Z,18.16
2018-05-04T16:14:28.444Z,18.30
2018-05-04T16:16:54.439Z,18.23
2018-05-04T16:19:20.459Z,18.19
2018-05-04T16:21:46.432Z,18.19
2018-05-04T16:24:12.439Z,18.13
2018-05-04T16:26:38.441Z,17.96
2018-05-04T16:29:04.397Z,18.03
2018-05-04T16:31:30.360Z,18.00
2018-05-04T16:33:56.362Z,18.05
2018-05-04T16:36:22.353Z,18.14
2018-05-04T16:38:48.370Z,17.96
2018-05-04T16:41:14.323Z,17.97
2018-05-04T16:43:40.272Z,17.95
2018-05-04T16:46:06.270Z,18.01
2018-05-04T16:48:32.289Z,17.99
2018-05-04T16:50:58.251Z,17.98
2018-05-04T16:53:24.283Z,18.02
2018-05-04T16:55:50.295Z,18.04
2018-05-04T16:58:16.298Z,17.93
2018-05-04T17:00:42.320Z,17.95
2018-05-04T17:03:08.457Z,18.22
2018-05-04T17:05:34.448Z,18.30
2018-05-04T17:08:00.811Z,18.35
2018-05-04T17:10:26.858Z,18.23
2018-05-04T17:12:52.924Z,18.20
2018-05-04T17:15:18.950Z,18.26
2018-05-04T17:17:45.012Z,18.25
2018-05-04T17:20:11.033Z,18.31
2018-05-04T17:22:36.989Z,18.21
2018-05-04T17:25:02.991Z,18.15
2018-05-04T17:27:28.998Z,18.17
2018-05-04T17:29:55.053Z,18.18
2018-05-04T17:32:21.056Z,18.20
2018-05-04T17:34:47.072Z,18.19
2018-05-04T17:37:13.103Z,18.26
2018-05-04T17:39:39.083Z,18.08
2018-05-04T17:42:05.035Z,18.05
2018-05-04T17:44:31.073Z,17.95
2018-05-04T17:46:57.126Z,17.93
2018-05-04T17:49:23.143Z,17.98
2018-05-04T17:51:49.130Z,17.82
2018-05-04T17:54:15.136Z,17.72
2018-05-04T17:56:41.136Z,17.87
2018-05-04T17:59:07.155Z,17.66
2018-05-04T18:01:33.236Z,17.76
2018-05-04T18:03:59.352Z,17.70
2018-05-04T18:06:25.375Z,17.61
2018-05-04T18:08:51.363Z,17.66
2018-05-04T18:11:18.756Z,17.64
2018-05-04T18:13:45.242Z,17.53
2018-05-04T18:16:11.259Z,17.57
2018-05-04T18:18:37.284Z,17.65
2018-05-04T18:21:03.292Z,17.50
2018-05-04T18:23:30.402Z,17.67
2018-05-04T18:25:56.600Z,17.74
2018-05-04T18:28:22.552Z,17.65
2018-05-04T18:30:48.737Z,17.44
2018-05-04T18:33:14.710Z,17.54
2018-05-04T18:35:40.684Z,17.59
2018-05-04T18:38:06.683Z,17.71
2018-05-04T18:40:32.689Z,17.49
2018-05-04T18:42:58.657Z,17.29
2018-05-04T18:45:24.622Z,17.45
2018-05-04T18:47:50.593Z,17.31
2018-05-04T18:50:16.597Z,17.49
2018-05-04T18:52:42.590Z,17.25
2018-05-04T18:55:08.575Z,17.49
2018-05-04T18:57:34.584Z,17.46
2018-05-04T19:00:00.587Z,17.31
2018-05-04T19:02:26.560Z,17.36
2018-05-04T19:04:52.497Z,17.46
2018-05-04T19:07:18.442Z,17.47
2018-05-04T19:09:44.565Z,17.51
2018-05-04T19:12:10.574Z,17.52
2018-05-04T19:14:36.686Z,17.45
2018-05-04T19:17:02.717Z,17.46
2018-05-04T19:19:28.701Z,17.43
2018-05-04T19:21:54.726Z,17.37
2018-05-04T19:24:20.718Z,17.36
2018-05-04T19:26:46.695Z,17.38
2018-05-04T19:29:12.776Z,17.33
2018-05-04T19:31:38.723Z,17.25
2018-05-04T19:34:04.733Z,17.33
2018-05-04T19:36:30.904Z,17.34
2018-05-04T19:38:56.906Z,17.32
2018-05-04T19:41:23.008Z,17.31
2018-05-04T19:43:49.318Z,17.27
2018-05-04T19:46:15.367Z,17.32
2018-05-04T19:48:41.357Z,17.25
2018-05-04T19:51:08.339Z,17.27
2018-05-04T19:53:34.362Z,17.22
2018-05-04T19:56:00.305Z,17.19
2018-05-04T19:58:26.295Z,17.16
2018-05-04T20:00:52.291Z,17.00
2018-05-04T20:03:18.290Z,17.10
2018-05-04T20:05:44.270Z,17.03
2018-05-04T20:08:10.322Z,16.86
2018-05-04T20:10:36.312Z,16.99
2018-05-04T20:13:02.362Z,16.97
2018-05-04T20:15:28.426Z,16.81
2018-05-04T20:17:54.485Z,16.92
2018-05-04T20:20:20.434Z,16.92
2018-05-04T20:22:46.432Z,16.86
2018-05-04T20:25:12.589Z,16.96
2018-05-04T20:27:38.697Z,16.96
2018-05-04T20:30:04.746Z,16.86
2018-05-04T20:32:30.707Z,16.97
2018-05-04T20:34:56.657Z,16.85
2018-05-04T20:37:22.642Z,16.82
2018-05-04T20:39:48.624Z,16.75
2018-05-04T20:42:14.609Z,16.76
2018-05-04T20:44:42.591Z,16.74
2018-05-04T20:47:08.654Z,16.83
2018-05-04T20:49:34.647Z,16.83
2018-05-04T20:52:00.691Z,16.82
2018-05-04T20:54:26.648Z,16.76
2018-05-04T20:56:52.614Z,16.73
2018-05-04T20:59:18.583Z,16.75
2018-05-04T21:01:44.622Z,16.70
2018-05-04T21:04:10.585Z,16.63
2018-05-04T21:06:36.576Z,16.67
2018-05-04T21:09:02.554Z,16.70
2018-05-04T21:11:28.582Z,16.62
2018-05-04T21:13:54.559Z,16.55
2018-05-04T21:16:20.525Z,16.47
2018-05-04T21:18:46.497Z,16.38
2018-05-04T21:21:12.429Z,16.56
2018-05-04T21:23:38.392Z,16.06
2018-05-04T21:26:04.332Z,16.32
2018-05-04T21:28:30.292Z,16.42
2018-05-04T21:30:56.255Z,16.50
2018-05-04T21:33:22.227Z,16.57
2018-05-04T21:35:48.242Z,16.50
2018-05-04T21:38:14.221Z,16.52
2018-05-04T21:40:40.176Z,16.36
2018-05-04T21:43:06.156Z,16.29
2018-05-04T21:45:32.259Z,16.26
2018-05-04T21:47:58.243Z,16.12
2018-05-04T21:50:24.224Z,16.07
2018-05-04T21:52:50.216Z,16.14
2018-05-04T21:55:16.196Z,16.04
2018-05-04T21:57:42.165Z,15.83
2018-05-04T22:00:08.234Z,15.92
2018-05-04T22:02:34.195Z,15.93
2018-05-04T22:05:00.191Z,15.79
2018-05-04T22:07:26.178Z,15.81
2018-05-04T22:09:52.117Z,15.65
2018-05-04T22:12:18.167Z,15.62
2018-05-04T22:14:44.133Z,15.57
2018-05-04T22:17:10.105Z,15.54
2018-05-04T22:19:36.094Z,15.35
2018-05-04T22:22:02.076Z,15.36
2018-05-04T22:24:28.022Z,15.39
2018-05-04T22:26:53.962Z,15.54
2018-05-04T22:29:19.931Z,15.52
2018-05-04T22:31:45.944Z,15.38
2018-05-04T22:34:11.932Z,15.35
2018-05-04T22:36:37.904Z,15.21
2018-05-04T22:39:03.867Z,15.26
2018-05-04T22:41:29.813Z,15.26
2018-05-04T22:43:55.752Z,15.52
2018-05-04T22:46:21.703Z,15.70
2018-05-04T22:48:47.664Z,15.78
2018-05-04T22:51:13.644Z,15.55
2018-05-04T22:53:39.628Z,15.70
2018-05-04T22:56:05.624Z,15.79
2018-05-04T22:58:31.613Z,15.72
2018-05-04T23:00:57.562Z,15.65
2018-05-04T23:03:23.539Z,15.81
2018-05-04T23:05:49.510Z,15.73
2018-05-04T23:08:15.485Z,15.72
2018-05-04T23:10:41.453Z,15.78
2018-05-04T23:13:07.444Z,15.78
2018-05-04T23:15:33.448Z,15.80
2018-05-04T23:17:59.450Z,15.59
2018-05-04T23:20:25.444Z,15.67
2018-05-04T23:22:51.450Z,15.68
2018-05-04T23:25:17.454Z,15.71
2018-05-04T23:27:43.431Z,15.55
2018-05-04T23:30:09.405Z,15.76
2018-05-04T23:32:35.405Z,15.58
2018-05-04T23:35:01.346Z,15.42
2018-05-04T23:37:27.307Z,15.17
2018-05-04T23:39:53.319Z,15.27
2018-05-04T23:42:19.273Z,15.52
2018-05-04T23:44:45.204Z,15.42
2018-05-04T23:47:11.138Z,15.24
2018-05-04T23:49:37.072Z,15.36
2018-05-04T23:52:03.043Z,15.55
2018-05-04T23:54:28.987Z,15.33
2018-05-04T23:56:54.954Z,15.56
2018-05-04T23:59:20.906Z,15.63
